createdAt,value
2022-09-06T00:00:27.585Z,100099.59
2022-09-06T00:02:55.879Z,100085.94
2022-09-06T00:05:25.729Z,100094.97
2022-09-06T00:07:53.919Z,100090.44
2022-09-06T00:10:22.277Z,100080.59
2022-09-06T00:12:50.806Z,100074.03
2022-09-06T00:15:19.264Z,100080.97
2022-09-06T00:17:47.652Z,100074.84
2022-09-06T00:20:16.553Z,100085.25
2022-09-06T00:22:46.121Z,100090.13
2022-09-06T00:25:14.752Z,100085.63
2022-09-06T00:27:43.016Z,100096.03
2022-09-06T00:30:12.609Z,100091.03
2022-09-06T00:32:41.289Z,100082.34
2022-09-06T00:35:09.464Z,100067.56
2022-09-06T00:37:37.678Z,100063.50
2022-09-06T00:40:08.750Z,100065.25
2022-09-06T00:42:36.959Z,100068.84
2022-09-06T00:45:07.441Z,100062.47
2022-09-06T00:47:36.910Z,100070.34
2022-09-06T00:50:06.067Z,100063.41
2022-09-06T00:52:35.723Z,100066.88
2022-09-06T00:55:04.338Z,100071.88
2022-09-06T00:57:35.101Z,100060.16
2022-09-06T01:00:06.055Z,100050.91
2022-09-06T01:02:34.356Z,100050.56
2022-09-06T01:05:03.675Z,100049.84
2022-09-06T01:07:46.624Z,100045.56
2022-09-06T01:10:29.804Z,100047.41
2022-09-06T01:13:20.858Z,100034.44
2022-09-06T01:15:56.216Z,100044.16
2022-09-06T01:18:37.908Z,100038.50
2022-09-06T01:21:22.673Z,100036.94
2022-09-06T01:24:09.266Z,100030.00
2022-09-06T01:27:12.936Z,100021.06
2022-09-06T01:29:48.860Z,100028.84
2022-09-06T01:32:25.570Z,100027.44
2022-09-06T01:34:59.811Z,100034.59
2022-09-06T01:37:28.178Z,100030.31
2022-09-06T01:39:56.291Z,100029.97
2022-09-06T01:42:29.505Z,100028.91
2022-09-06T01:45:02.814Z,100029.88
2022-09-06T01:47:39.880Z,100020.50
2022-09-06T01:50:30.964Z,100013.31
2022-09-06T01:53:04.946Z,100017.69
2022-09-06T01:55:40.587Z,100014.59
2022-09-06T01:58:30.227Z,100016.78
2022-09-06T02:01:07.535Z,100005.56
2022-09-06T02:03:43.596Z,100003.72
2022-09-06T02:06:17.164Z,99998.53
2022-09-06T02:08:49.880Z,99997.72
2022-09-06T02:11:18.481Z,100000.50
2022-09-06T02:13:52.285Z,99989.41
2022-09-06T02:16:26.350Z,99991.59
2022-09-06T02:19:00.436Z,99982.13
2022-09-06T02:21:32.913Z,99984.31
2022-09-06T02:24:04.803Z,99978.41
2022-09-06T02:26:38.901Z,99979.44
2022-09-06T02:29:08.053Z,99969.03
2022-09-06T02:31:41.438Z,99981.75
2022-09-06T02:34:10.980Z,99968.69
2022-09-06T02:36:39.385Z,99964.16
2022-09-06T02:39:08.024Z,99956.28
2022-09-06T02:41:36.953Z,99965.31
2022-09-06T02:44:05.256Z,99964.84
2022-09-06T02:46:33.560Z,99963.69
2022-09-06T02:49:03.874Z,99965.53
2022-09-06T02:51:32.278Z,99967.31
2022-09-06T02:54:00.467Z,99955.50
2022-09-06T02:56:28.701Z,99960.81
2022-09-06T02:58:56.789Z,99956.09
2022-09-06T03:01:24.987Z,99943.00
2022-09-06T03:03:53.321Z,99935.38
2022-09-06T03:06:22.818Z,99937.47
2022-09-06T03:08:51.591Z,99940.56
2022-09-06T03:11:19.713Z,99941.81
2022-09-06T03:13:47.906Z,99936.97
2022-09-06T03:16:16.145Z,99947.72
2022-09-06T03:18:44.403Z,99941.59
2022-09-06T03:21:12.775Z,99936.50
2022-09-06T03:23:42.360Z,99935.91
2022-09-06T03:26:10.589Z,99931.06
2022-09-06T03:28:39.293Z,99935.56
2022-09-06T03:31:07.668Z,99933.59
2022-09-06T03:33:36.103Z,99931.16
2022-09-06T03:36:04.910Z,99917.63
2022-09-06T03:38:33.082Z,99906.88
2022-09-06T03:41:02.673Z,99911.72
2022-09-06T03:43:32.370Z,99904.22
2022-09-06T03:46:00.660Z,99911.13
2022-09-06T03:48:30.817Z,99908.72
2022-09-06T03:51:00.574Z,99908.47
2022-09-06T03:53:30.695Z,99913.34
2022-09-06T03:55:59.410Z,99916.03
2022-09-06T03:58:31.882Z,99919.47
2022-09-06T04:01:05.702Z,99923.75
2022-09-06T04:03:35.097Z,99926.06
2022-09-06T04:06:03.807Z,99927.22
2022-09-06T04:08:32.343Z,99916.81
2022-09-06T04:11:01.278Z,99910.22
2022-09-06T04:13:31.857Z,99914.16
2022-09-06T04:16:00.389Z,99904.22
2022-09-06T04:18:28.795Z,99907.06
2022-09-06T04:20:57.518Z,99918.88
2022-09-06T04:23:26.618Z,99916.22
2022-09-06T04:25:56.944Z,99912.16
2022-09-06T04:28:26.800Z,99908.69
2022-09-06T04:31:01.973Z,99897.00
2022-09-06T04:33:34.112Z,99902.75
2022-09-06T04:36:03.752Z,99892.56
2022-09-06T04:38:35.967Z,99903.09
2022-09-06T04:41:04.509Z,99899.25
2022-09-06T04:43:32.889Z,99900.66
2022-09-06T04:46:06.545Z,99901.34
2022-09-06T04:48:34.774Z,99901.91
2022-09-06T04:51:02.960Z,99892.69
2022-09-06T04:53:31.412Z,99878.66
2022-09-06T04:55:59.940Z,99888.47
2022-09-06T04:58:28.213Z,99900.16
2022-09-06T05:00:56.523Z,99897.63
2022-09-06T05:03:26.129Z,99906.19
2022-09-06T05:05:54.184Z,99911.63
2022-09-06T05:08:22.376Z,99914.28
2022-09-06T05:10:52.877Z,99918.94
2022-09-06T05:13:21.055Z,99920.78
2022-09-06T05:15:49.198Z,99922.78
2022-09-06T05:18:17.398Z,99928.91
2022-09-06T05:20:52.933Z,99935.84
2022-09-06T05:23:21.430Z,99924.41
2022-09-06T05:25:50.039Z,99934.25
2022-09-06T05:28:18.703Z,99940.81
2022-09-06T05:30:47.738Z,99930.09
2022-09-06T05:33:21.602Z,99933.19
2022-09-06T05:35:51.171Z,99928.09
2022-09-06T05:38:19.282Z,99928.59
2022-09-06T05:40:47.488Z,99935.91
2022-09-06T05:43:15.665Z,99925.00
2022-09-06T05:45:43.850Z,99934.75
2022-09-06T05:48:11.974Z,99927.78
2022-09-06T05:50:40.227Z,99924.56
2022-09-06T05:53:09.760Z,99932.66
2022-09-06T05:55:42.325Z,99928.16
2022-09-06T05:58:11.364Z,99920.28
2022-09-06T06:00:39.526Z,99917.63
2022-09-06T06:03:07.765Z,99919.47
2022-09-06T06:05:36.334Z,99918.09
2022-09-06T06:08:04.530Z,99920.41
2022-09-06T06:10:38.449Z,99917.50
2022-09-06T06:13:06.958Z,99913.81
2022-09-06T06:15:35.008Z,99908.28
2022-09-06T06:18:03.162Z,99913.81
2022-09-06T06:20:31.346Z,99907.22
2022-09-06T06:22:59.447Z,99910.44
2022-09-06T06:25:27.552Z,99908.16
2022-09-06T06:27:57.108Z,99899.94
2022-09-06T06:30:25.309Z,99896.38
2022-09-06T06:32:53.365Z,99894.75
2022-09-06T06:35:21.586Z,99892.19
2022-09-06T06:37:49.654Z,99882.13
2022-09-06T06:40:17.923Z,99883.84
2022-09-06T06:42:46.097Z,99876.47
2022-09-06T06:45:15.773Z,99880.97
2022-09-06T06:47:44.005Z,99887.09
2022-09-06T06:50:12.143Z,99885.94
2022-09-06T06:52:41.362Z,99875.50
2022-09-06T06:55:10.430Z,99874.47
2022-09-06T06:57:38.639Z,99872.97
2022-09-06T07:00:07.744Z,99867.63
2022-09-06T07:02:37.360Z,99864.63
2022-09-06T07:07:54.431Z,99872.81
2022-09-06T07:10:37.798Z,99885.19
2022-09-06T07:13:06.295Z,99885.69
2022-09-06T07:15:34.510Z,99888.81
2022-09-06T07:18:04.059Z,99890.81
2022-09-06T07:26:09.215Z,99891.47
2022-09-06T07:28:37.405Z,99894.22
2022-09-06T07:31:06.048Z,99889.00
2022-09-06T07:33:37.841Z,99898.06
2022-09-06T07:36:08.351Z,99892.59
2022-09-06T07:38:37.508Z,99899.66
2022-09-06T07:41:07.504Z,99889.47
2022-09-06T07:43:36.660Z,99901.97
2022-09-06T07:46:07.024Z,99900.56
2022-09-06T07:48:38.404Z,99903.81
2022-09-06T07:51:07.722Z,99901.59
2022-09-06T07:53:36.842Z,99900.66
2022-09-06T07:56:07.552Z,99907.84
2022-09-06T07:58:36.173Z,99919.31
2022-09-06T08:01:27.534Z,99916.31
2022-09-06T08:03:58.422Z,99917.59
2022-09-06T08:06:28.180Z,99911.56
2022-09-06T08:11:31.734Z,99915.94
2022-09-06T08:14:01.346Z,99917.09
2022-09-06T08:16:31.270Z,99912.34
2022-09-06T08:19:02.706Z,99914.59
2022-09-06T08:21:32.226Z,99914.75
2022-09-06T08:24:01.971Z,99921.69
2022-09-06T08:26:32.123Z,99915.75
2022-09-06T08:29:02.037Z,99908.44
2022-09-06T08:31:31.730Z,99921.53
2022-09-06T08:34:02.490Z,99920.47
2022-09-06T08:36:31.450Z,99932.78
2022-09-06T08:39:00.263Z,99924.28
2022-09-06T08:41:32.311Z,99936.34
2022-09-06T08:46:58.747Z,99938.44
2022-09-06T08:49:31.784Z,99952.25
2022-09-06T08:52:22.766Z,99950.66
2022-09-06T08:55:00.147Z,99948.78
2022-09-06T08:57:43.092Z,99944.81
2022-09-06T09:00:14.216Z,99948.28
2022-09-06T09:02:45.470Z,99939.47
2022-09-06T09:05:23.396Z,99935.03
2022-09-06T09:08:01.673Z,99936.91
2022-09-06T09:10:32.728Z,99936.09
2022-09-06T09:13:03.827Z,99932.81
2022-09-06T09:15:34.309Z,99941.47
2022-09-06T09:18:05.551Z,99934.38
2022-09-06T09:20:35.193Z,99937.28
2022-09-06T09:23:03.448Z,99935.88
2022-09-06T09:25:34.244Z,99946.66
2022-09-06T09:28:03.501Z,99936.69
2022-09-06T09:30:49.557Z,99937.50
2022-09-06T09:33:26.606Z,99936.34
2022-09-06T09:35:57.466Z,99940.25
2022-09-06T09:38:28.546Z,99941.50
2022-09-06T09:40:59.270Z,99937.88
2022-09-06T09:43:31.217Z,99949.25
2022-09-06T09:46:15.710Z,99950.81
2022-09-06T09:48:49.814Z,99967.25
2022-09-06T09:51:27.319Z,99985.25
2022-09-06T09:53:58.056Z,99973.59
2022-09-06T09:56:35.405Z,99987.91
2022-09-06T09:59:04.940Z,99994.78
2022-09-06T10:01:34.431Z,100005.97
2022-09-06T10:07:10.706Z,100019.16
2022-09-06T10:09:42.707Z,100025.16
2022-09-06T10:12:17.713Z,100031.84
2022-09-06T10:14:48.649Z,100025.75
2022-09-06T10:17:22.406Z,100016.78
2022-09-06T10:19:50.677Z,100017.44
2022-09-06T10:22:29.913Z,100006.94
2022-09-06T10:25:30.786Z,99992.75
2022-09-06T10:28:29.696Z,99970.09
2022-09-06T10:31:30.482Z,99958.28
2022-09-06T10:34:12.116Z,99950.78
2022-09-06T10:36:41.398Z,99942.91
2022-09-06T10:39:26.836Z,99940.03
2022-09-06T10:42:04.818Z,99931.56
2022-09-06T10:44:47.590Z,99936.44
2022-09-06T10:47:17.283Z,99939.69
2022-09-06T10:49:47.929Z,99955.22
2022-09-06T10:52:21.509Z,99967.13
2022-09-06T10:54:52.003Z,99973.25
2022-09-06T11:00:15.107Z,100001.13
2022-09-06T11:05:45.568Z,100037.75
2022-09-06T11:11:17.173Z,100038.47
2022-09-06T11:13:45.285Z,100044.69
2022-09-06T11:16:21.737Z,100045.91
2022-09-06T11:18:56.140Z,100039.41
2022-09-06T11:21:50.119Z,100035.75
2022-09-06T11:24:31.609Z,100031.53
2022-09-06T11:27:03.603Z,100033.81
2022-09-06T11:29:33.678Z,100026.53
2022-09-06T11:32:19.291Z,100031.91
2022-09-06T11:34:54.917Z,100025.41
2022-09-06T11:37:28.250Z,100037.63
2022-09-06T11:43:17.231Z,100020.47
2022-09-06T11:45:48.681Z,100012.44
2022-09-06T11:48:47.050Z,100021.97
2022-09-06T11:51:33.326Z,99999.53
2022-09-06T11:54:27.002Z,99992.94
2022-09-06T11:57:03.627Z,99995.88
2022-09-06T11:59:41.736Z,99986.03
2022-09-06T12:02:32.525Z,99992.00
2022-09-06T12:05:17.437Z,99992.56
2022-09-06T12:08:30.291Z,99994.25
2022-09-06T12:11:04.374Z,99980.25
2022-09-06T12:13:49.228Z,99981.78
2022-09-06T12:16:19.705Z,99987.81
2022-09-06T12:18:57.128Z,99985.19
2022-09-06T12:21:52.120Z,99987.94
2022-09-06T12:24:56.317Z,99984.59
2022-09-06T12:27:26.955Z,99974.97
2022-09-06T12:29:59.587Z,99973.69
2022-09-06T12:32:37.186Z,99975.31
2022-09-06T12:37:57.560Z,99953.31
2022-09-06T12:40:27.959Z,99941.84
2022-09-06T12:42:56.960Z,99925.25
2022-09-06T12:45:27.679Z,99911.72
2022-09-06T12:48:09.848Z,99919.03
2022-09-06T12:50:38.405Z,99909.75
2022-09-06T12:53:24.780Z,99901.50
2022-09-06T12:56:05.488Z,99893.16
2022-09-06T12:58:33.778Z,99890.56
2022-09-06T13:01:09.532Z,99884.16
2022-09-06T13:03:45.314Z,99872.16
2022-09-06T13:06:24.497Z,99860.63
2022-09-06T13:08:57.324Z,99853.97
2022-09-06T13:11:31.657Z,99844.81
2022-09-06T13:14:00.504Z,99844.06
2022-09-06T13:16:33.326Z,99826.03
2022-09-06T13:19:15.556Z,99825.47
2022-09-06T13:21:46.110Z,99835.53
2022-09-06T13:24:21.884Z,99842.50
2022-09-06T13:26:51.015Z,99836.78
2022-09-06T13:29:27.386Z,99824.72
2022-09-06T13:31:58.496Z,99830.69
2022-09-06T13:34:30.435Z,99827.28
2022-09-06T13:37:05.104Z,99821.28
2022-09-06T13:39:36.032Z,99825.81
2022-09-06T13:42:07.674Z,99824.53
2022-09-06T13:44:36.072Z,99822.59
2022-09-06T13:47:05.116Z,99827.13
2022-09-06T13:49:35.002Z,99819.53
2022-09-06T13:52:05.155Z,99815.00
2022-09-06T13:54:34.169Z,99821.19
2022-09-06T13:57:02.885Z,99808.34
2022-09-06T13:59:31.788Z,99794.34
2022-09-06T14:02:03.502Z,99788.28
2022-09-06T14:04:32.128Z,99789.06
2022-09-06T14:07:01.985Z,99784.06
2022-09-06T14:09:30.759Z,99786.66
2022-09-06T14:11:58.998Z,99777.94
2022-09-06T14:14:27.308Z,99782.22
2022-09-06T14:16:55.514Z,99787.78
2022-09-06T14:19:24.462Z,99780.59
2022-09-06T14:21:52.638Z,99794.41
2022-09-06T14:24:22.169Z,99775.22
2022-09-06T14:26:50.505Z,99776.13
2022-09-06T14:29:19.168Z,99787.03
2022-09-06T14:31:48.513Z,99782.09
2022-09-06T14:34:17.035Z,99779.69
2022-09-06T14:36:45.228Z,99790.53
2022-09-06T14:39:13.358Z,99790.06
2022-09-06T14:41:43.022Z,99797.75
2022-09-06T14:44:11.877Z,99791.06
2022-09-06T14:46:40.248Z,99798.47
2022-09-06T14:49:11.322Z,99794.78
2022-09-06T14:51:39.945Z,99787.06
2022-09-06T14:54:10.508Z,99798.88
2022-09-06T14:56:40.936Z,99793.03
2022-09-06T14:59:11.342Z,99793.59
2022-09-06T15:01:40.991Z,99803.72
2022-09-06T15:04:11.235Z,99797.06
2022-09-06T15:06:44.283Z,99797.06
2022-09-06T15:09:12.490Z,99800.75
2022-09-06T15:11:43.364Z,99795.19
2022-09-06T15:14:17.672Z,99796.31
2022-09-06T15:16:46.612Z,99790.50
2022-09-06T15:19:15.812Z,99790.81
2022-09-06T15:21:44.548Z,99797.13
2022-09-06T15:24:12.746Z,99805.41
2022-09-06T15:26:41.230Z,99806.53
2022-09-06T15:29:09.893Z,99808.81
2022-09-06T15:31:40.224Z,99807.53
2022-09-06T15:34:09.119Z,99802.25
2022-09-06T15:36:38.402Z,99794.03
2022-09-06T15:39:07.619Z,99802.31
2022-09-06T15:41:37.788Z,99795.59
2022-09-06T15:44:09.729Z,99803.13
2022-09-06T15:46:45.927Z,99801.38
2022-09-06T15:49:17.042Z,99809.41
2022-09-06T15:51:45.550Z,99814.34
2022-09-06T15:54:15.280Z,99820.03
2022-09-06T15:56:42.604Z,99820.53
2022-09-06T15:59:11.237Z,99832.38
2022-09-06T16:01:39.761Z,99835.41
2022-09-06T16:04:09.462Z,99841.00
2022-09-06T16:06:39.809Z,99846.09
2022-09-06T16:09:09.823Z,99852.56
2022-09-06T16:11:38.735Z,99849.34
2022-09-06T16:14:09.361Z,99851.13
2022-09-06T16:16:39.895Z,99851.34
2022-09-06T16:19:10.042Z,99862.59
2022-09-06T16:21:40.132Z,99866.75
2022-09-06T16:24:10.311Z,99863.56
2022-09-06T16:26:41.749Z,99854.59
2022-09-06T16:29:10.389Z,99862.09
2022-09-06T16:31:40.593Z,99869.03
2022-09-06T16:34:10.925Z,99866.16
2022-09-06T16:36:39.519Z,99878.47
2022-09-06T16:39:08.806Z,99878.22
2022-09-06T16:41:40.913Z,99878.00
2022-09-06T16:44:10.327Z,99876.06
2022-09-06T16:46:40.265Z,99877.94
2022-09-06T16:49:08.504Z,99882.72
2022-09-06T16:51:38.067Z,99884.78
2022-09-06T16:54:06.420Z,99890.03
2022-09-06T16:56:36.118Z,99895.03
2022-09-06T16:59:06.626Z,99894.22
2022-09-06T17:01:36.559Z,99899.38
2022-09-06T17:04:06.337Z,99902.75
2022-09-06T17:06:38.362Z,99909.41
2022-09-06T17:09:08.020Z,99907.53
2022-09-06T17:11:37.329Z,99899.34
2022-09-06T17:14:05.606Z,99901.09
2022-09-06T17:16:51.441Z,99899.94
2022-09-06T17:19:19.793Z,99894.94
2022-09-06T17:21:48.420Z,99891.03
2022-09-06T17:24:18.339Z,99899.94
2022-09-06T17:26:46.695Z,99905.63
2022-09-06T17:29:14.851Z,99917.09
2022-09-06T17:31:43.408Z,99907.94
2022-09-06T17:34:11.753Z,99912.16
2022-09-06T17:36:39.863Z,99912.38
2022-09-06T17:39:10.724Z,99913.97
2022-09-06T17:41:42.045Z,99912.63
2022-09-06T17:44:12.132Z,99914.03
2022-09-06T17:46:52.005Z,99914.97
2022-09-06T17:49:27.231Z,99916.00
2022-09-06T17:51:55.358Z,99916.94
2022-09-06T17:54:23.584Z,99913.72
2022-09-06T17:56:53.354Z,99919.38
2022-09-06T17:59:21.997Z,99919.38
2022-09-06T18:01:50.197Z,99917.19
2022-09-06T18:04:19.510Z,99928.91
2022-09-06T18:06:48.003Z,99924.38
2022-09-06T18:09:18.084Z,99925.84
2022-09-06T18:11:47.467Z,99926.91
2022-09-06T18:14:21.038Z,99925.59
2022-09-06T18:16:49.541Z,99921.72
2022-09-06T18:19:18.883Z,99912.91
2022-09-06T18:21:49.252Z,99905.09
2022-09-06T18:24:17.699Z,99899.66
2022-09-06T18:26:46.781Z,99900.25
2022-09-06T18:29:18.603Z,99894.28
2022-09-06T18:31:47.252Z,99893.47
2022-09-06T18:34:16.574Z,99891.59
2022-09-06T18:36:44.786Z,99888.00
2022-09-06T18:39:13.596Z,99880.84
2022-09-06T18:41:59.440Z,99885.00
2022-09-06T18:44:33.058Z,99879.09
2022-09-06T18:47:02.664Z,99884.91
2022-09-06T18:49:32.554Z,99881.53
2022-09-06T18:52:01.164Z,99874.84
2022-09-06T18:54:30.076Z,99885.94
2022-09-06T18:56:58.389Z,99877.16
2022-09-06T18:59:26.540Z,99881.19
2022-09-06T19:01:56.461Z,99879.34
2022-09-06T19:04:24.941Z,99870.56
2022-09-06T19:06:53.205Z,99873.66
2022-09-06T19:09:21.569Z,99876.47
2022-09-06T19:11:51.742Z,99872.84
2022-09-06T19:14:20.619Z,99869.41
2022-09-06T19:16:50.297Z,99863.63
2022-09-06T19:19:21.529Z,99862.81
2022-09-06T19:21:49.987Z,99861.41
2022-09-06T19:24:18.188Z,99862.44
2022-09-06T19:26:47.541Z,99860.16
2022-09-06T19:29:17.816Z,99859.56
2022-09-06T19:31:47.422Z,99861.16
2022-09-06T19:34:16.336Z,99857.69
2022-09-06T19:36:47.179Z,99858.63
2022-09-06T19:39:17.130Z,99852.47
2022-09-06T19:41:47.418Z,99844.75
2022-09-06T19:44:16.294Z,99848.66
2022-09-06T19:46:47.149Z,99844.97
2022-09-06T19:49:17.493Z,99841.50
2022-09-06T19:51:51.094Z,99846.84
2022-09-06T19:54:19.423Z,99847.84
2022-09-06T19:56:48.343Z,99849.16
2022-09-06T19:59:17.868Z,99841.97
2022-09-06T20:01:47.821Z,99845.88
2022-09-06T20:04:16.383Z,99847.75
2022-09-06T20:06:44.848Z,99842.22
2022-09-06T20:09:16.023Z,99843.03
2022-09-06T20:11:44.833Z,99839.41
2022-09-06T20:14:13.568Z,99834.09
2022-09-06T20:16:43.135Z,99831.91
2022-09-06T20:19:14.408Z,99825.19
2022-09-06T20:21:43.054Z,99822.06
2022-09-06T20:24:11.220Z,99829.22
2022-09-06T20:26:40.980Z,99828.06
2022-09-06T20:29:09.204Z,99826.44
2022-09-06T20:31:39.178Z,99818.94
2022-09-06T20:34:08.523Z,99814.66
2022-09-06T20:36:36.975Z,99812.00
2022-09-06T20:39:06.005Z,99803.44
2022-09-06T20:41:34.994Z,99801.22
2022-09-06T20:44:05.326Z,99798.00
2022-09-06T20:46:35.461Z,99798.41
2022-09-06T20:49:06.785Z,99797.84
2022-09-06T20:51:36.345Z,99790.94
2022-09-06T20:54:06.550Z,99797.63
2022-09-06T20:56:37.869Z,99800.53
2022-09-06T20:59:09.687Z,99804.66
2022-09-06T21:01:41.450Z,99802.34
2022-09-06T21:04:10.982Z,99796.56
2022-09-06T21:06:40.247Z,99803.50
2022-09-06T21:09:11.645Z,99803.16
2022-09-06T21:11:40.651Z,99793.91
2022-09-06T21:14:10.967Z,99792.88
2022-09-06T21:16:40.789Z,99793.91
2022-09-06T21:19:10.500Z,99795.28
2022-09-06T21:21:39.220Z,99786.97
2022-09-06T21:24:09.626Z,99792.31
2022-09-06T21:26:38.245Z,99789.84
2022-09-06T21:29:06.673Z,99779.69
2022-09-06T21:31:38.248Z,99770.06
2022-09-06T21:34:11.484Z,99770.66
2022-09-06T21:36:43.701Z,99774.34
2022-09-06T21:39:13.497Z,99777.25
2022-09-06T21:41:43.330Z,99775.28
2022-09-06T21:44:12.307Z,99769.34
2022-09-06T21:46:42.246Z,99775.72
2022-09-06T21:49:13.225Z,99767.16
2022-09-06T21:51:42.165Z,99769.72
2022-09-06T21:54:10.733Z,99767.63
2022-09-06T21:56:40.236Z,99764.41
2022-09-06T21:59:09.229Z,99756.63
2022-09-06T22:01:39.875Z,99759.88
2022-09-06T22:04:09.770Z,99756.06
2022-09-06T22:06:38.137Z,99753.53
2022-09-06T22:09:11.188Z,99749.63
2022-09-06T22:11:42.611Z,99747.97
2022-09-06T22:14:13.712Z,99748.44
2022-09-06T22:16:42.691Z,99746.59
2022-09-06T22:19:12.744Z,99743.13
2022-09-06T22:21:42.362Z,99748.91
2022-09-06T22:24:12.281Z,99742.88
2022-09-06T22:26:42.080Z,99747.63
2022-09-06T22:29:11.983Z,99740.91
2022-09-06T22:31:41.327Z,99738.50
2022-09-06T22:34:11.811Z,99739.66
2022-09-06T22:36:40.063Z,99734.88
2022-09-06T22:39:09.643Z,99733.75
2022-09-06T22:41:38.100Z,99739.25
2022-09-06T22:44:07.349Z,99732.69
2022-09-06T22:46:37.160Z,99733.06
2022-09-06T22:49:05.649Z,99720.69
2022-09-06T22:51:35.258Z,99716.56
2022-09-06T22:54:03.437Z,99711.56
2022-09-06T22:56:31.871Z,99707.88
2022-09-06T22:59:00.220Z,99693.78
2022-09-06T23:01:28.855Z,99694.59
2022-09-06T23:03:56.973Z,99696.44
2022-09-06T23:06:25.050Z,99685.22
2022-09-06T23:08:54.695Z,99684.19
2022-09-06T23:11:22.941Z,99680.16
2022-09-06T23:13:51.017Z,99668.81
2022-09-06T23:16:21.054Z,99672.53
2022-09-06T23:18:49.806Z,99664.88
2022-09-06T23:21:19.579Z,99658.75
2022-09-06T23:23:49.099Z,99655.06
2022-09-06T23:26:20.551Z,99654.50
2022-09-06T23:28:51.731Z,99652.28
2022-09-06T23:31:19.936Z,99647.06
2022-09-06T23:33:48.129Z,99646.06
2022-09-06T23:36:16.370Z,99630.66
2022-09-06T23:38:44.753Z,99622.13
2022-09-06T23:41:13.496Z,99623.50
2022-09-06T23:43:44.631Z,99612.41
2022-09-06T23:46:14.724Z,99612.97
2022-09-06T23:48:43.424Z,99602.13
2022-09-06T23:51:12.104Z,99604.91
2022-09-06T23:53:40.487Z,99609.16
2022-09-06T23:56:08.757Z,99595.63
2022-09-06T23:58:37.680Z,99594.81
